sensor_id;sensor_type;location;lat;lon;timestamp;pressure;altitude;pressure_sealevel;temperature;humidity
34237;BME280;20501;45.956;13.632;2023-04-22T00:01:42;100500.88;;;12.86;68.19
34237;BME280;20501;45.956;13.632;2023-04-22T00:04:07;100500.34;;;13.00;65.68
34237;BME280;20501;45.956;13.632;2023-04-22T00:06:33;100510.66;;;12.79;67.76
34237;BME280;20501;45.956;13.632;2023-04-22T00:08:59;100506.97;;;12.62;66.63
34237;BME280;20501;45.956;13.632;2023-04-22T00:11:25;100506.88;;;12.35;70.96
34237;BME280;20501;45.956;13.632;2023-04-22T00:13:50;100500.88;;;12.32;68.72
34237;BME280;20501;45.956;13.632;2023-04-22T00:16:16;100503.03;;;12.10;70.09
34237;BME280;20501;45.956;13.632;2023-04-22T00:18:41;100505.78;;;12.46;69.72
34237;BME280;20501;45.956;13.632;2023-04-22T00:21:07;100497.81;;;12.63;67.58
34237;BME280;20501;45.956;13.632;2023-04-22T00:23:32;100510.59;;;12.34;67.67
34237;BME280;20501;45.956;13.632;2023-04-22T00:25:59;100501.72;;;11.86;69.53
34237;BME280;20501;45.956;13.632;2023-04-22T00:28:24;100500.56;;;12.17;68.86
34237;BME280;20501;45.956;13.632;2023-04-22T00:30:50;100503.47;;;12.51;67.70
34237;BME280;20501;45.956;13.632;2023-04-22T00:33:15;100505.94;;;12.27;67.51
34237;BME280;20501;45.956;13.632;2023-04-22T00:35:41;100499.69;;;11.60;69.41
34237;BME280;20501;45.956;13.632;2023-04-22T00:38:06;100502.22;;;11.72;69.87
34237;BME280;20501;45.956;13.632;2023-04-22T00:40:31;100503.53;;;11.96;69.24
34237;BME280;20501;45.956;13.632;2023-04-22T00:42:59;100504.91;;;11.72;68.45
34237;BME280;20501;45.956;13.632;2023-04-22T00:45:25;100503.25;;;12.45;69.76
34237;BME280;20501;45.956;13.632;2023-04-22T00:47:51;100501.44;;;12.72;67.68
34237;BME280;20501;45.956;13.632;2023-04-22T00:50:16;100501.88;;;11.85;68.89
34237;BME280;20501;45.956;13.632;2023-04-22T00:52:42;100491.78;;;11.77;69.30
34237;BME280;20501;45.956;13.632;2023-04-22T00:55:07;100503.00;;;11.07;70.65
34237;BME280;20501;45.956;13.632;2023-04-22T00:57:34;100496.16;;;11.60;69.90
34237;BME280;20501;45.956;13.632;2023-04-22T01:00:00;100500.03;;;11.48;70.69
34237;BME280;20501;45.956;13.632;2023-04-22T01:02:27;100499.88;;;11.87;70.38
34237;BME280;20501;45.956;13.632;2023-04-22T01:04:53;100497.31;;;12.13;67.54
34237;BME280;20501;45.956;13.632;2023-04-22T01:07:22;100502.78;;;12.67;66.84
34237;BME280;20501;45.956;13.632;2023-04-22T01:09:48;100491.78;;;12.15;66.90
34237;BME280;20501;45.956;13.632;2023-04-22T01:12:14;100498.66;;;12.45;68.37
34237;BME280;20501;45.956;13.632;2023-04-22T01:14:39;100487.59;;;12.57;69.06
34237;BME280;20501;45.956;13.632;2023-04-22T01:17:05;100494.16;;;12.90;67.88
34237;BME280;20501;45.956;13.632;2023-04-22T01:19:31;100491.78;;;11.49;69.62
34237;BME280;20501;45.956;13.632;2023-04-22T01:21:58;100488.91;;;11.51;71.49
34237;BME280;20501;45.956;13.632;2023-04-22T01:24:25;100495.31;;;11.12;71.15
34237;BME280;20501;45.956;13.632;2023-04-22T01:26:51;100493.88;;;11.08;71.95
34237;BME280;20501;45.956;13.632;2023-04-22T01:29:16;100488.06;;;11.50;71.55
34237;BME280;20501;45.956;13.632;2023-04-22T01:31:42;100490.69;;;12.26;69.25
34237;BME280;20501;45.956;13.632;2023-04-22T01:34:08;100498.28;;;12.40;67.37
34237;BME280;20501;45.956;13.632;2023-04-22T01:36:33;100494.25;;;12.80;65.24
34237;BME280;20501;45.956;13.632;2023-04-22T01:38:59;100489.81;;;11.41;69.13
34237;BME280;20501;45.956;13.632;2023-04-22T01:41:25;100486.19;;;12.16;69.56
34237;BME280;20501;45.956;13.632;2023-04-22T01:43:56;100481.66;;;11.13;70.66
34237;BME280;20501;45.956;13.632;2023-04-22T01:46:22;100472.06;;;10.62;72.38
34237;BME280;20501;45.956;13.632;2023-04-22T01:48:47;100476.06;;;12.18;68.24
34237;BME280;20501;45.956;13.632;2023-04-22T01:51:18;100472.00;;;11.76;69.34
34237;BME280;20501;45.956;13.632;2023-04-22T01:53:48;100470.75;;;11.33;71.10
34237;BME280;20501;45.956;13.632;2023-04-22T01:56:14;100475.28;;;10.95;72.82
34237;BME280;20501;45.956;13.632;2023-04-22T01:58:40;100478.28;;;10.82;71.69
34237;BME280;20501;45.956;13.632;2023-04-22T02:01:07;100476.78;;;11.55;70.65
34237;BME280;20501;45.956;13.632;2023-04-22T02:03:33;100464.84;;;11.85;68.75
34237;BME280;20501;45.956;13.632;2023-04-22T02:05:58;100475.59;;;11.95;68.00
34237;BME280;20501;45.956;13.632;2023-04-22T02:08:24;100470.09;;;11.87;67.72
34237;BME280;20501;45.956;13.632;2023-04-22T02:10:49;100472.75;;;11.97;66.97
34237;BME280;20501;45.956;13.632;2023-04-22T02:13:15;100483.16;;;11.91;69.33
34237;BME280;20501;45.956;13.632;2023-04-22T02:15:40;100480.41;;;12.65;67.29
34237;BME280;20501;45.956;13.632;2023-04-22T02:18:07;100487.56;;;12.93;66.95
34237;BME280;20501;45.956;13.632;2023-04-22T02:20:34;100484.66;;;11.48;67.51
34237;BME280;20501;45.956;13.632;2023-04-22T02:23:00;100487.31;;;11.86;66.90
34237;BME280;20501;45.956;13.632;2023-04-22T02:25:27;100491.91;;;11.85;68.65
34237;BME280;20501;45.956;13.632;2023-04-22T02:27:53;100482.41;;;12.27;68.35
34237;BME280;20501;45.956;13.632;2023-04-22T02:30:18;100479.72;;;11.71;70.17
34237;BME280;20501;45.956;13.632;2023-04-22T02:32:44;100491.16;;;12.39;68.62
34237;BME280;20501;45.956;13.632;2023-04-22T02:35:10;100492.00;;;12.58;67.42
34237;BME280;20501;45.956;13.632;2023-04-22T02:37:36;100486.84;;;12.00;67.36
34237;BME280;20501;45.956;13.632;2023-04-22T02:40:02;100484.16;;;12.73;67.47
34237;BME280;20501;45.956;13.632;2023-04-22T02:42:28;100476.44;;;12.23;66.95
34237;BME280;20501;45.956;13.632;2023-04-22T02:44:53;100481.13;;;12.94;66.62
34237;BME280;20501;45.956;13.632;2023-04-22T02:47:19;100482.63;;;12.70;64.17
34237;BME280;20501;45.956;13.632;2023-04-22T02:49:45;100481.00;;;11.95;65.34
34237;BME280;20501;45.956;13.632;2023-04-22T02:52:10;100478.97;;;11.51;68.51
34237;BME280;20501;45.956;13.632;2023-04-22T02:54:36;100487.94;;;11.80;69.55
34237;BME280;20501;45.956;13.632;2023-04-22T02:57:01;100480.78;;;13.23;65.59
34237;BME280;20501;45.956;13.632;2023-04-22T02:59:27;100479.69;;;12.63;63.78
34237;BME280;20501;45.956;13.632;2023-04-22T03:01:52;100480.25;;;12.31;67.07
34237;BME280;20501;45.956;13.632;2023-04-22T03:04:18;100473.91;;;11.66;69.02
34237;BME280;20501;45.956;13.632;2023-04-22T03:06:50;100479.75;;;11.89;68.48
34237;BME280;20501;45.956;13.632;2023-04-22T03:09:15;100481.09;;;11.10;70.61
34237;BME280;20501;45.956;13.632;2023-04-22T03:11:41;100480.72;;;10.46;73.28
34237;BME280;20501;45.956;13.632;2023-04-22T03:14:07;100478.84;;;10.27;75.19
34237;BME280;20501;45.956;13.632;2023-04-22T03:16:32;100486.75;;;9.99;74.98
34237;BME280;20501;45.956;13.632;2023-04-22T03:18:58;100486.34;;;10.13;74.81
34237;BME280;20501;45.956;13.632;2023-04-22T03:21:23;100488.81;;;10.56;73.13
34237;BME280;20501;45.956;13.632;2023-04-22T03:23:49;100488.50;;;10.19;74.49
34237;BME280;20501;45.956;13.632;2023-04-22T03:26:14;100487.03;;;9.55;76.76
34237;BME280;20501;45.956;13.632;2023-04-22T03:28:39;100483.50;;;9.64;76.71
34237;BME280;20501;45.956;13.632;2023-04-22T03:31:05;100482.16;;;9.80;76.48
34237;BME280;20501;45.956;13.632;2023-04-22T03:33:30;100483.06;;;10.10;75.04
34237;BME280;20501;45.956;13.632;2023-04-22T03:35:56;100479.66;;;10.07;74.33
34237;BME280;20501;45.956;13.632;2023-04-22T03:38:21;100478.69;;;10.18;73.67
34237;BME280;20501;45.956;13.632;2023-04-22T03:40:47;100477.09;;;10.06;74.19
34237;BME280;20501;45.956;13.632;2023-04-22T03:43:12;100477.41;;;10.91;71.25
34237;BME280;20501;45.956;13.632;2023-04-22T03:45:37;100478.88;;;10.76;74.29
34237;BME280;20501;45.956;13.632;2023-04-22T03:48:03;100478.72;;;10.48;72.56
34237;BME280;20501;45.956;13.632;2023-04-22T03:50:28;100478.63;;;9.89;75.78
34237;BME280;20501;45.956;13.632;2023-04-22T03:52:54;100481.66;;;10.15;74.21
34237;BME280;20501;45.956;13.632;2023-04-22T03:55:20;100470.78;;;9.76;75.77
34237;BME280;20501;45.956;13.632;2023-04-22T03:57:45;100484.84;;;10.40;73.73
34237;BME280;20501;45.956;13.632;2023-04-22T04:00:11;100475.47;;;10.54;72.82
34237;BME280;20501;45.956;13.632;2023-04-22T04:02:36;100478.59;;;10.40;72.44
34237;BME280;20501;45.956;13.632;2023-04-22T04:05:02;100478.91;;;9.86;75.15
34237;BME280;20501;45.956;13.632;2023-04-22T04:07:27;100481.56;;;10.76;73.07
34237;BME280;20501;45.956;13.632;2023-04-22T04:09:53;100481.13;;;11.75;70.09
34237;BME280;20501;45.956;13.632;2023-04-22T04:12:18;100479.53;;;11.45;68.54
34237;BME280;20501;45.956;13.632;2023-04-22T04:14:43;100484.78;;;10.99;70.32
34237;BME280;20501;45.956;13.632;2023-04-22T04:17:09;100485.31;;;11.98;70.27
34237;BME280;20501;45.956;13.632;2023-04-22T04:19:37;100478.59;;;11.26;69.94
34237;BME280;20501;45.956;13.632;2023-04-22T04:22:02;100481.25;;;10.89;71.08
34237;BME280;20501;45.956;13.632;2023-04-22T04:24:28;100489.31;;;11.56;71.52
34237;BME280;20501;45.956;13.632;2023-04-22T04:26:53;100483.56;;;11.69;68.50
34237;BME280;20501;45.956;13.632;2023-04-22T04:29:19;100485.34;;;12.34;68.24
34237;BME280;20501;45.956;13.632;2023-04-22T04:31:44;100485.41;;;11.96;67.51
34237;BME280;20501;45.956;13.632;2023-04-22T04:34:10;100491.91;;;11.00;71.30
34237;BME280;20501;45.956;13.632;2023-04-22T04:36:35;100478.00;;;10.95;70.49
34237;BME280;20501;45.956;13.632;2023-04-22T04:39:04;100483.38;;;10.36;72.05
34237;BME280;20501;45.956;13.632;2023-04-22T04:41:30;100477.47;;;9.82;74.43
34237;BME280;20501;45.956;13.632;2023-04-22T04:43:56;100482.47;;;9.96;73.66
34237;BME280;20501;45.956;13.632;2023-04-22T04:46:24;100486.75;;;11.92;69.41
34237;BME280;20501;45.956;13.632;2023-04-22T04:48:50;100489.22;;;11.00;70.03
34237;BME280;20501;45.956;13.632;2023-04-22T04:51:18;100489.69;;;10.46;71.35
34237;BME280;20501;45.956;13.632;2023-04-22T04:53:44;100490.22;;;10.69;73.96
34237;BME280;20501;45.956;13.632;2023-04-22T04:56:09;100494.47;;;10.23;74.79
34237;BME280;20501;45.956;13.632;2023-04-22T04:58:35;100493.78;;;10.31;71.82
34237;BME280;20501;45.956;13.632;2023-04-22T05:01:00;100497.47;;;10.30;72.95
34237;BME280;20501;45.956;13.632;2023-04-22T05:03:25;100507.16;;;9.82;74.82
34237;BME280;20501;45.956;13.632;2023-04-22T05:05:51;100496.34;;;10.42;74.91
34237;BME280;20501;45.956;13.632;2023-04-22T05:08:16;100503.63;;;10.51;72.88
34237;BME280;20501;45.956;13.632;2023-04-22T05:10:42;100508.19;;;11.75;70.17
34237;BME280;20501;45.956;13.632;2023-04-22T05:13:09;100499.28;;;11.08;70.18
34237;BME280;20501;45.956;13.632;2023-04-22T05:15:35;100502.00;;;11.08;71.05
34237;BME280;20501;45.956;13.632;2023-04-22T05:18:00;100500.28;;;10.28;73.65
34237;BME280;20501;45.956;13.632;2023-04-22T05:20:26;100505.38;;;10.12;73.08
34237;BME280;20501;45.956;13.632;2023-04-22T05:22:51;100510.81;;;11.10;72.48
34237;BME280;20501;45.956;13.632;2023-04-22T05:25:17;100511.00;;;10.79;72.35
34237;BME280;20501;45.956;13.632;2023-04-22T05:27:42;100514.41;;;10.91;70.60
34237;BME280;20501;45.956;13.632;2023-04-22T05:30:08;100517.41;;;11.45;70.00
34237;BME280;20501;45.956;13.632;2023-04-22T05:32:33;100514.81;;;11.91;69.04
34237;BME280;20501;45.956;13.632;2023-04-22T05:34:59;100517.66;;;11.61;69.46
34237;BME280;20501;45.956;13.632;2023-04-22T05:37:24;100521.94;;;10.87;69.80
34237;BME280;20501;45.956;13.632;2023-04-22T05:39:50;100525.91;;;11.12;69.49
34237;BME280;20501;45.956;13.632;2023-04-22T05:42:15;100520.97;;;11.83;67.97
34237;BME280;20501;45.956;13.632;2023-04-22T05:44:41;100521.19;;;11.62;70.09
34237;BME280;20501;45.956;13.632;2023-04-22T05:47:06;100522.75;;;11.27;71.23
34237;BME280;20501;45.956;13.632;2023-04-22T05:49:31;100522.91;;;11.06;70.60
34237;BME280;20501;45.956;13.632;2023-04-22T05:51:57;100520.25;;;10.86;71.73
34237;BME280;20501;45.956;13.632;2023-04-22T05:54:22;100524.91;;;11.04;72.22
34237;BME280;20501;45.956;13.632;2023-04-22T05:56:48;100521.75;;;11.08;70.58
34237;BME280;20501;45.956;13.632;2023-04-22T05:59:13;100520.09;;;11.83;68.64
34237;BME280;20501;45.956;13.632;2023-04-22T06:01:39;100527.22;;;12.39;66.29
34237;BME280;20501;45.956;13.632;2023-04-22T06:04:04;100527.16;;;12.49;66.58
34237;BME280;20501;45.956;13.632;2023-04-22T06:06:31;100523.88;;;13.00;64.95
34237;BME280;20501;45.956;13.632;2023-04-22T06:08:56;100524.63;;;13.10;65.37
34237;BME280;20501;45.956;13.632;2023-04-22T06:11:22;100519.56;;;13.60;63.82
34237;BME280;20501;45.956;13.632;2023-04-22T06:13:47;100521.69;;;12.13;66.37
34237;BME280;20501;45.956;13.632;2023-04-22T06:16:13;100520.78;;;11.95;66.99
34237;BME280;20501;45.956;13.632;2023-04-22T06:18:39;100522.94;;;11.91;67.38
34237;BME280;20501;45.956;13.632;2023-04-22T06:21:04;100522.31;;;12.07;66.78
34237;BME280;20501;45.956;13.632;2023-04-22T06:23:30;100530.38;;;12.35;67.18
34237;BME280;20501;45.956;13.632;2023-04-22T06:25:55;100526.44;;;12.29;66.92
34237;BME280;20501;45.956;13.632;2023-04-22T06:28:22;100525.41;;;12.12;67.60
34237;BME280;20501;45.956;13.632;2023-04-22T06:30:48;100524.44;;;12.31;67.50
34237;BME280;20501;45.956;13.632;2023-04-22T06:33:13;100519.69;;;12.88;66.07
34237;BME280;20501;45.956;13.632;2023-04-22T06:35:39;100521.72;;;12.85;65.59
34237;BME280;20501;45.956;13.632;2023-04-22T06:38:04;100525.28;;;12.50;67.29
34237;BME280;20501;45.956;13.632;2023-04-22T06:40:29;100532.88;;;12.64;67.40
34237;BME280;20501;45.956;13.632;2023-04-22T06:42:55;100517.47;;;12.83;66.91
34237;BME280;20501;45.956;13.632;2023-04-22T06:45:20;100526.56;;;13.18;65.31
34237;BME280;20501;45.956;13.632;2023-04-22T06:47:46;100515.81;;;13.35;65.09
34237;BME280;20501;45.956;13.632;2023-04-22T06:50:11;100526.59;;;13.26;65.18
34237;BME280;20501;45.956;13.632;2023-04-22T06:52:37;100523.34;;;12.60;66.98
34237;BME280;20501;45.956;13.632;2023-04-22T06:55:02;100528.72;;;12.70;67.64
34237;BME280;20501;45.956;13.632;2023-04-22T06:57:29;100529.41;;;12.90;66.05
34237;BME280;20501;45.956;13.632;2023-04-22T06:59:54;100536.53;;;13.18;66.02
34237;BME280;20501;45.956;13.632;2023-04-22T07:02:20;100532.50;;;12.59;66.93
34237;BME280;20501;45.956;13.632;2023-04-22T07:04:46;100536.84;;;12.70;67.06
34237;BME280;20501;45.956;13.632;2023-04-22T07:07:12;100541.84;;;13.01;66.69
34237;BME280;20501;45.956;13.632;2023-04-22T07:09:38;100536.28;;;13.29;64.90
34237;BME280;20501;45.956;13.632;2023-04-22T07:12:03;100528.06;;;13.65;64.43
34237;BME280;20501;45.956;13.632;2023-04-22T07:14:29;100535.84;;;13.60;65.07
34237;BME280;20501;45.956;13.632;2023-04-22T07:16:55;100530.00;;;13.46;65.33
34237;BME280;20501;45.956;13.632;2023-04-22T07:19:21;100526.53;;;13.62;64.29
34237;BME280;20501;45.956;13.632;2023-04-22T07:21:46;100532.53;;;13.83;63.95
34237;BME280;20501;45.956;13.632;2023-04-22T07:24:12;100540.59;;;14.01;63.26
34237;BME280;20501;45.956;13.632;2023-04-22T07:26:39;100543.41;;;14.17;63.22
34237;BME280;20501;45.956;13.632;2023-04-22T07:29:05;100547.16;;;14.24;63.94
34237;BME280;20501;45.956;13.632;2023-04-22T07:31:32;100550.13;;;14.05;63.07
34237;BME280;20501;45.956;13.632;2023-04-22T07:33:57;100544.00;;;14.46;62.62
34237;BME280;20501;45.956;13.632;2023-04-22T07:36:23;100547.63;;;14.71;62.08
34237;BME280;20501;45.956;13.632;2023-04-22T07:38:48;100545.41;;;14.91;61.08
34237;BME280;20501;45.956;13.632;2023-04-22T07:41:14;100537.34;;;14.48;60.91
34237;BME280;20501;45.956;13.632;2023-04-22T07:43:39;100546.00;;;14.44;61.88
34237;BME280;20501;45.956;13.632;2023-04-22T07:46:05;100538.88;;;14.51;61.37
34237;BME280;20501;45.956;13.632;2023-04-22T07:48:31;100540.66;;;14.85;61.18
34237;BME280;20501;45.956;13.632;2023-04-22T07:50:56;100546.25;;;14.75;61.00
34237;BME280;20501;45.956;13.632;2023-04-22T07:53:21;100547.81;;;14.94;60.51
34237;BME280;20501;45.956;13.632;2023-04-22T07:55:47;100541.16;;;15.22;59.91
34237;BME280;20501;45.956;13.632;2023-04-22T07:58:14;100549.81;;;15.33;60.02
34237;BME280;20501;45.956;13.632;2023-04-22T08:00:39;100545.06;;;15.44;60.57
34237;BME280;20501;45.956;13.632;2023-04-22T08:03:05;100546.09;;;15.43;61.32
34237;BME280;20501;45.956;13.632;2023-04-22T08:05:30;100541.81;;;15.40;59.09
34237;BME280;20501;45.956;13.632;2023-04-22T08:07:56;100551.13;;;15.62;58.35
34237;BME280;20501;45.956;13.632;2023-04-22T08:10:21;100545.16;;;15.67;59.55
34237;BME280;20501;45.956;13.632;2023-04-22T08:12:47;100548.22;;;15.64;59.19
34237;BME280;20501;45.956;13.632;2023-04-22T08:15:12;100544.16;;;15.60;59.45
34237;BME280;20501;45.956;13.632;2023-04-22T08:17:38;100549.78;;;15.50;59.35
34237;BME280;20501;45.956;13.632;2023-04-22T08:20:04;100548.75;;;15.59;59.19
34237;BME280;20501;45.956;13.632;2023-04-22T08:22:30;100548.06;;;15.57;58.81
34237;BME280;20501;45.956;13.632;2023-04-22T08:24:58;100544.28;;;15.67;58.27
34237;BME280;20501;45.956;13.632;2023-04-22T08:27:23;100543.31;;;15.59;58.06
34237;BME280;20501;45.956;13.632;2023-04-22T08:29:49;100551.47;;;15.59;57.52
34237;BME280;20501;45.956;13.632;2023-04-22T08:32:14;100536.81;;;15.69;56.50
34237;BME280;20501;45.956;13.632;2023-04-22T08:34:40;100539.19;;;15.72;55.44
34237;BME280;20501;45.956;13.632;2023-04-22T08:37:05;100536.28;;;15.82;53.57
34237;BME280;20501;45.956;13.632;2023-04-22T08:39:31;100531.47;;;15.84;52.99
34237;BME280;20501;45.956;13.632;2023-04-22T08:41:56;100534.88;;;15.94;55.22
34237;BME280;20501;45.956;13.632;2023-04-22T08:44:22;100532.28;;;16.01;55.25
34237;BME280;20501;45.956;13.632;2023-04-22T08:46:48;100538.28;;;15.96;55.13
34237;BME280;20501;45.956;13.632;2023-04-22T08:49:15;100535.16;;;16.07;55.05
34237;BME280;20501;45.956;13.632;2023-04-22T08:51:42;100527.69;;;16.41;49.24
34237;BME280;20501;45.956;13.632;2023-04-22T08:54:07;100535.34;;;16.37;50.86
34237;BME280;20501;45.956;13.632;2023-04-22T08:56:33;100527.91;;;16.54;49.04
34237;BME280;20501;45.956;13.632;2023-04-22T08:58:59;100520.34;;;16.42;50.72
34237;BME280;20501;45.956;13.632;2023-04-22T09:01:25;100524.34;;;16.54;49.81
34237;BME280;20501;45.956;13.632;2023-04-22T09:03:52;100520.16;;;16.43;50.18
34237;BME280;20501;45.956;13.632;2023-04-22T09:06:19;100527.63;;;16.73;49.95
34237;BME280;20501;45.956;13.632;2023-04-22T09:08:46;100524.47;;;16.61;50.33
34237;BME280;20501;45.956;13.632;2023-04-22T09:11:11;100530.66;;;16.78;49.32
34237;BME280;20501;45.956;13.632;2023-04-22T09:13:37;100529.19;;;16.90;49.46
34237;BME280;20501;45.956;13.632;2023-04-22T09:16:02;100525.41;;;16.99;49.31
34237;BME280;20501;45.956;13.632;2023-04-22T09:18:28;100519.00;;;16.84;48.55
34237;BME280;20501;45.956;13.632;2023-04-22T09:20:54;100525.06;;;16.48;51.60
34237;BME280;20501;45.956;13.632;2023-04-22T09:23:21;100523.69;;;16.52;51.05
34237;BME280;20501;45.956;13.632;2023-04-22T09:25:46;100511.56;;;16.54;51.51
34237;BME280;20501;45.956;13.632;2023-04-22T09:28:17;100512.03;;;16.81;51.59
34237;BME280;20501;45.956;13.632;2023-04-22T09:30:44;100518.56;;;17.18;50.35
34237;BME280;20501;45.956;13.632;2023-04-22T09:33:10;100512.31;;;16.95;49.70
34237;BME280;20501;45.956;13.632;2023-04-22T09:35:43;100520.50;;;17.48;48.15
34237;BME280;20501;45.956;13.632;2023-04-22T09:38:11;100508.84;;;17.54;47.79
34237;BME280;20501;45.956;13.632;2023-04-22T09:40:40;100501.00;;;17.66;48.11
34237;BME280;20501;45.956;13.632;2023-04-22T09:43:07;100503.53;;;17.68;47.46
34237;BME280;20501;45.956;13.632;2023-04-22T09:45:40;100499.41;;;17.57;47.91
34237;BME280;20501;45.956;13.632;2023-04-22T09:48:14;100497.97;;;17.61;48.15
34237;BME280;20501;45.956;13.632;2023-04-22T09:50:49;100501.09;;;17.58;48.29
34237;BME280;20501;45.956;13.632;2023-04-22T09:53:17;100508.81;;;17.69;47.70
34237;BME280;20501;45.956;13.632;2023-04-22T09:55:48;100496.56;;;17.80;47.74
34237;BME280;20501;45.956;13.632;2023-04-22T09:58:17;100494.88;;;17.79;48.81
34237;BME280;20501;45.956;13.632;2023-04-22T10:00:50;100498.56;;;18.01;48.93
34237;BME280;20501;45.956;13.632;2023-04-22T10:03:17;100491.75;;;17.97;49.08
34237;BME280;20501;45.956;13.632;2023-04-22T10:05:42;100495.31;;;17.83;49.75
34237;BME280;20501;45.956;13.632;2023-04-22T10:08:10;100491.56;;;17.99;49.21
34237;BME280;20501;45.956;13.632;2023-04-22T10:10:37;100493.09;;;18.01;49.04
34237;BME280;20501;45.956;13.632;2023-04-22T10:13:03;100490.84;;;17.75;49.79
34237;BME280;20501;45.956;13.632;2023-04-22T10:15:35;100484.69;;;17.88;50.38
34237;BME280;20501;45.956;13.632;2023-04-22T10:18:05;100485.25;;;17.83;49.25
34237;BME280;20501;45.956;13.632;2023-04-22T10:20:33;100477.25;;;17.82;49.99
34237;BME280;20501;45.956;13.632;2023-04-22T10:23:03;100482.88;;;17.95;49.71
34237;BME280;20501;45.956;13.632;2023-04-22T10:25:29;100477.94;;;17.39;52.06
34237;BME280;20501;45.956;13.632;2023-04-22T10:28:09;100485.28;;;17.38;52.42
34237;BME280;20501;45.956;13.632;2023-04-22T10:30:36;100484.22;;;17.39;52.23
34237;BME280;20501;45.956;13.632;2023-04-22T10:33:34;100480.53;;;17.77;51.69
34237;BME280;20501;45.956;13.632;2023-04-22T10:36:18;100470.09;;;17.51;52.06
34237;BME280;20501;45.956;13.632;2023-04-22T10:41:28;100473.59;;;17.59;51.86
34237;BME280;20501;45.956;13.632;2023-04-22T10:43:58;100476.69;;;18.01;50.10
34237;BME280;20501;45.956;13.632;2023-04-22T10:49:12;100472.97;;;18.24;50.48
34237;BME280;20501;45.956;13.632;2023-04-22T10:51:41;100473.31;;;17.84;51.46
34237;BME280;20501;45.956;13.632;2023-04-22T10:54:07;100469.56;;;18.22;48.99
34237;BME280;20501;45.956;13.632;2023-04-22T10:56:32;100462.84;;;18.24;49.65
34237;BME280;20501;45.956;13.632;2023-04-22T10:58:58;100475.13;;;18.50;50.37
34237;BME280;20501;45.956;13.632;2023-04-22T11:01:26;100464.34;;;18.49;49.30
34237;BME280;20501;45.956;13.632;2023-04-22T11:03:52;100457.38;;;18.24;49.75
34237;BME280;20501;45.956;13.632;2023-04-22T11:06:19;100468.41;;;18.31;49.84
34237;BME280;20501;45.956;13.632;2023-04-22T11:08:47;100466.00;;;18.06;50.66
34237;BME280;20501;45.956;13.632;2023-04-22T11:11:13;100460.59;;;18.50;50.15
34237;BME280;20501;45.956;13.632;2023-04-22T11:13:41;100464.03;;;18.59;49.81
34237;BME280;20501;45.956;13.632;2023-04-22T11:16:10;100461.25;;;18.52;49.28
34237;BME280;20501;45.956;13.632;2023-04-22T11:18:36;100452.13;;;18.23;50.95
34237;BME280;20501;45.956;13.632;2023-04-22T11:21:05;100453.81;;;18.67;49.17
34237;BME280;20501;45.956;13.632;2023-04-22T11:23:32;100452.88;;;18.17;50.70
34237;BME280;20501;45.956;13.632;2023-04-22T11:26:00;100448.31;;;18.02;51.81
34237;BME280;20501;45.956;13.632;2023-04-22T11:28:26;100447.47;;;18.02;52.63
34237;BME280;20501;45.956;13.632;2023-04-22T11:31:00;100446.38;;;18.18;51.65
34237;BME280;20501;45.956;13.632;2023-04-22T11:33:25;100446.59;;;18.38;50.55
34237;BME280;20501;45.956;13.632;2023-04-22T11:35:50;100445.50;;;18.32;50.81
34237;BME280;20501;45.956;13.632;2023-04-22T11:38:16;100446.16;;;18.56;50.34
34237;BME280;20501;45.956;13.632;2023-04-22T11:40:42;100440.28;;;18.87;49.29
34237;BME280;20501;45.956;13.632;2023-04-22T11:43:08;100432.94;;;18.38;51.24
34237;BME280;20501;45.956;13.632;2023-04-22T11:45:35;100441.66;;;18.48;50.34
34237;BME280;20501;45.956;13.632;2023-04-22T11:48:01;100432.75;;;18.03;52.11
34237;BME280;20501;45.956;13.632;2023-04-22T11:50:29;100430.50;;;18.50;51.54
34237;BME280;20501;45.956;13.632;2023-04-22T11:52:57;100442.88;;;18.67;50.07
34237;BME280;20501;45.956;13.632;2023-04-22T11:55:30;100441.06;;;18.53;50.05
34237;BME280;20501;45.956;13.632;2023-04-22T11:57:59;100437.06;;;17.60;52.15
34237;BME280;20501;45.956;13.632;2023-04-22T12:00:30;100435.25;;;17.68;52.27
34237;BME280;20501;45.956;13.632;2023-04-22T12:03:01;100426.06;;;18.27;49.82
34237;BME280;20501;45.956;13.632;2023-04-22T12:06:14;100426.22;;;18.40;49.46
34237;BME280;20501;45.956;13.632;2023-04-22T12:08:22;100428.25;;;18.82;48.25
34237;BME280;20501;45.956;13.632;2023-04-22T12:15:55;100430.91;;;18.97;48.40
34237;BME280;20501;45.956;13.632;2023-04-22T12:18:31;100428.44;;;19.02;47.21
34237;BME280;20501;45.956;13.632;2023-04-22T12:23:29;100423.56;;;18.97;46.93
34237;BME280;20501;45.956;13.632;2023-04-22T12:25:56;100423.81;;;19.02;47.39
34237;BME280;20501;45.956;13.632;2023-04-22T12:28:21;100418.22;;;18.89;47.53
34237;BME280;20501;45.956;13.632;2023-04-22T12:30:47;100404.09;;;19.14;46.51
34237;BME280;20501;45.956;13.632;2023-04-22T12:33:12;100411.59;;;18.77;47.62
34237;BME280;20501;45.956;13.632;2023-04-22T12:35:38;100408.50;;;19.15;46.42
34237;BME280;20501;45.956;13.632;2023-04-22T12:38:03;100409.94;;;19.04;46.04
34237;BME280;20501;45.956;13.632;2023-04-22T12:40:29;100411.38;;;19.00;46.42
34237;BME280;20501;45.956;13.632;2023-04-22T12:42:54;100411.03;;;19.10;47.88
34237;BME280;20501;45.956;13.632;2023-04-22T12:45:20;100411.03;;;19.10;47.98
34237;BME280;20501;45.956;13.632;2023-04-22T12:47:47;100415.28;;;19.19;46.56
34237;BME280;20501;45.956;13.632;2023-04-22T12:50:13;100410.72;;;18.98;48.05